Portada
METAR-TAF:

METAR-TAF

Aeropuertos :

Tarbes Lourdes, Francia

Aeropuerto de Tarbes-Lourdes-Pirineos

latitud: 43-11N, longitud: 000-00W, altitud: 379 m

Observación

El informe se hizo hace 26 minutos, a las 18:00 UTC
Viento 5 kt del sur-suroeste
Temperatura 19°C
Humedad 78%
Presión 1019 hPa
Visibilidad 10 km o más
sin nubes por debajo de 1500 m y sin presencia de cumulonimbus.

METAR: LFBT 231800Z AUTO 21005KT CAVOK 19/15 Q1019 NOSIG

Hora: 20:26 (18:26 UTC)

Pronóstico

El informe se hizo hace 1 hora y 26 minutos, a las 17:00 UTC
Pronóstico válido del 23 a las 18 UTC al 24 a las 18 UTC
Viento 3 kt con dirección variable
Visibilidad 10 km o más
sin nubes por debajo de 1500 m y sin presencia de cumulonimbus.

TAF: LFBT 231700Z 2318/2418 VRB03KT CAVOK

Observaciones y pronósticos meteorológicos de más de 4000 aeropuertos (mensajes METAR y TAF).

Los puntos amarillos y rojos representan las estaciones disponibles.

Ponga el ratón en el punto deseado para ver el nombre de la estación.

Haga clic para ver las observaciones y los pronósticos meteorológicos.

Para cambiar el mapa : haga clic en los botones verdes con una cruz de color negro para hacer un zoom, en el botón verde con un guión para alejar o en las flechas verdes para mapas adyacentes.


METAR-TAF: